createdAt,value
2019-04-07T00:00:37.388Z,99.90
2019-04-07T00:03:08.600Z,99.90
2019-04-07T00:05:40.012Z,99.90
2019-04-07T00:08:11.194Z,99.90
2019-04-07T00:10:42.499Z,99.90
2019-04-07T00:13:13.895Z,99.90
2019-04-07T00:15:45.229Z,99.90
2019-04-07T00:18:16.859Z,99.90
2019-04-07T00:20:48.498Z,99.90
2019-04-07T00:23:20.054Z,99.90
2019-04-07T00:25:51.659Z,99.90
2019-04-07T00:28:22.803Z,99.90
2019-04-07T00:30:54.110Z,99.90
2019-04-07T00:33:25.665Z,99.90
2019-04-07T00:35:56.931Z,99.90
2019-04-07T00:38:28.504Z,99.90
2019-04-07T00:40:59.468Z,99.90
2019-04-07T00:43:31.747Z,99.90
2019-04-07T00:46:03.501Z,99.90
2019-04-07T00:48:36.444Z,99.90
2019-04-07T00:51:07.838Z,99.90
2019-04-07T00:53:39.326Z,99.90
2019-04-07T00:56:10.624Z,99.90
2019-04-07T00:58:42.529Z,99.90
2019-04-07T01:01:16.448Z,99.90
2019-04-07T01:03:48.183Z,99.90
2019-04-07T01:06:19.641Z,99.90
2019-04-07T01:08:50.538Z,99.90
2019-04-07T01:11:21.606Z,99.90
2019-04-07T01:13:52.940Z,99.90
2019-04-07T01:16:25.221Z,99.90
2019-04-07T01:18:56.940Z,99.90
2019-04-07T01:21:28.105Z,99.90
2019-04-07T01:23:59.526Z,99.90
2019-04-07T01:26:30.463Z,99.90
2019-04-07T01:29:01.606Z,99.90
2019-04-07T01:31:32.978Z,99.90
2019-04-07T01:34:04.792Z,99.90
2019-04-07T01:36:35.722Z,99.90
2019-04-07T01:39:10.288Z,99.90
2019-04-07T01:41:56.302Z,99.90
2019-04-07T01:44:42.053Z,99.90
2019-04-07T01:47:27.677Z,99.90
2019-04-07T01:50:10.955Z,99.90
2019-04-07T01:53:02.536Z,99.90
2019-04-07T01:55:56.739Z,99.90
2019-04-07T01:58:44.609Z,99.90
2019-04-07T02:01:34.832Z,99.90
2019-04-07T02:04:23.720Z,99.90
2019-04-07T02:07:13.984Z,99.90
2019-04-07T02:10:03.355Z,99.90
2019-04-07T02:12:52.086Z,99.90
2019-04-07T02:15:29.482Z,99.90
2019-04-07T02:18:09.173Z,99.90
2019-04-07T02:20:59.735Z,99.90
2019-04-07T02:23:41.383Z,99.90
2019-04-07T02:26:22.381Z,99.90
2019-04-07T02:29:11.673Z,99.90
2019-04-07T02:31:52.492Z,99.90
2019-04-07T02:34:32.785Z,99.90
2019-04-07T02:37:19.307Z,99.90
2019-04-07T02:40:11.716Z,99.90
2019-04-07T02:42:48.335Z,99.90
2019-04-07T02:45:36.622Z,99.90
2019-04-07T02:48:26.929Z,99.90
2019-04-07T02:51:16.095Z,99.90
2019-04-07T02:54:10.811Z,99.90
2019-04-07T02:57:10.181Z,99.90
2019-04-07T02:59:51.562Z,99.90
2019-04-07T03:02:46.258Z,99.90
2019-04-07T03:05:40.534Z,99.90
2019-04-07T03:08:27.032Z,99.90
2019-04-07T03:11:18.034Z,99.90
2019-04-07T03:13:55.444Z,99.90
2019-04-07T03:16:41.911Z,99.90
2019-04-07T03:19:29.889Z,99.90
2019-04-07T03:22:26.032Z,99.90
2019-04-07T03:25:06.534Z,99.90
2019-04-07T03:27:49.134Z,99.90
2019-04-07T03:30:45.409Z,99.90
2019-04-07T03:33:23.627Z,99.90
2019-04-07T03:36:18.569Z,99.90
2019-04-07T03:39:03.459Z,99.90
2019-04-07T03:41:40.506Z,99.90
2019-04-07T03:44:34.401Z,99.90
2019-04-07T03:47:12.756Z,99.90
2019-04-07T03:50:16.274Z,99.90
2019-04-07T03:52:56.818Z,99.90
2019-04-07T03:55:46.745Z,99.90
2019-04-07T03:58:37.775Z,99.90
2019-04-07T04:01:28.550Z,99.90
2019-04-07T04:04:23.048Z,99.90
2019-04-07T04:07:22.376Z,99.90
2019-04-07T04:10:17.852Z,99.90
2019-04-07T04:12:56.317Z,99.90
2019-04-07T04:15:33.668Z,99.90
2019-04-07T04:18:05.461Z,99.90
2019-04-07T04:20:37.254Z,99.90
2019-04-07T04:23:08.988Z,99.90
2019-04-07T04:25:40.726Z,99.90
2019-04-07T04:28:12.104Z,99.90
2019-04-07T04:30:44.055Z,99.90
2019-04-07T04:33:15.933Z,99.90
2019-04-07T04:35:47.020Z,99.90
2019-04-07T04:38:18.153Z,99.90
2019-04-07T04:40:49.375Z,99.90
2019-04-07T04:43:20.448Z,99.90
2019-04-07T04:45:53.242Z,99.90
2019-04-07T04:48:24.347Z,99.90
2019-04-07T04:50:56.064Z,99.90
2019-04-07T04:53:29.007Z,99.90
2019-04-07T04:56:00.973Z,99.90
2019-04-07T04:58:32.486Z,99.90
2019-04-07T05:01:04.481Z,99.90
2019-04-07T05:03:36.188Z,99.90
2019-04-07T05:06:07.850Z,99.90
2019-04-07T05:08:39.213Z,99.90
2019-04-07T05:11:10.541Z,99.90
2019-04-07T05:13:42.175Z,99.90
2019-04-07T05:16:13.139Z,99.90
2019-04-07T05:18:44.954Z,99.90
2019-04-07T05:21:16.447Z,99.90
2019-04-07T05:23:48.051Z,99.90
2019-04-07T05:26:20.144Z,99.90
2019-04-07T05:28:51.186Z,99.90
2019-04-07T05:31:22.468Z,99.90
2019-04-07T05:33:54.248Z,99.90
2019-04-07T05:36:25.219Z,99.90
2019-04-07T05:38:57.443Z,99.90
2019-04-07T05:41:29.615Z,99.90
2019-04-07T05:44:01.344Z,99.90
2019-04-07T05:46:32.655Z,99.90
2019-04-07T05:49:03.546Z,99.90
2019-04-07T05:51:34.707Z,99.90
2019-04-07T05:54:05.933Z,99.90
2019-04-07T05:56:37.986Z,99.90
2019-04-07T05:59:11.655Z,99.90
2019-04-07T06:01:42.014Z,99.90
2019-04-07T06:04:16.975Z,99.90
2019-04-07T06:06:46.292Z,99.90
2019-04-07T06:09:19.033Z,99.90
2019-04-07T06:11:50.174Z,99.90
2019-04-07T06:14:21.744Z,99.90
2019-04-07T06:16:55.382Z,99.90
2019-04-07T06:19:26.042Z,99.90
2019-04-07T06:21:57.946Z,99.90
2019-04-07T06:24:31.633Z,99.90
2019-04-07T06:27:02.064Z,99.90
2019-04-07T06:29:33.404Z,99.90
2019-04-07T06:32:05.546Z,99.90
2019-04-07T06:34:41.102Z,99.90
2019-04-07T06:37:10.587Z,99.90
2019-04-07T06:39:41.738Z,99.90
2019-04-07T06:42:14.287Z,99.90
2019-04-07T06:44:45.792Z,99.90
2019-04-07T06:47:23.812Z,99.90
2019-04-07T06:50:15.725Z,99.90
2019-04-07T06:53:15.797Z,99.90
2019-04-07T06:56:05.999Z,99.90
2019-04-07T06:58:50.348Z,99.90
2019-04-07T07:01:29.749Z,99.90
2019-04-07T07:04:15.728Z,99.90
2019-04-07T07:07:07.087Z,99.90
2019-04-07T07:10:06.289Z,99.90
2019-04-07T07:13:00.977Z,99.90
2019-04-07T07:15:50.770Z,99.90
2019-04-07T07:18:28.338Z,99.90
2019-04-07T07:21:24.143Z,99.90
2019-04-07T07:23:55.821Z,99.90
2019-04-07T07:26:28.318Z,99.90
2019-04-07T07:28:59.695Z,99.90
2019-04-07T07:31:30.890Z,99.90
2019-04-07T07:34:02.832Z,99.90
2019-04-07T07:36:34.070Z,99.90
2019-04-07T07:39:10.284Z,99.90
2019-04-07T07:41:40.985Z,99.90
2019-04-07T07:44:12.295Z,99.90
2019-04-07T07:46:43.227Z,99.90
2019-04-07T07:49:14.797Z,99.90
2019-04-07T07:51:48.553Z,99.90
2019-04-07T07:54:18.738Z,99.90
2019-04-07T07:56:51.371Z,99.90
2019-04-07T07:59:22.614Z,99.90
2019-04-07T08:01:53.562Z,99.90
2019-04-07T08:04:26.413Z,99.90
2019-04-07T08:06:57.932Z,99.90
2019-04-07T08:09:28.891Z,99.90
2019-04-07T08:12:01.635Z,99.90
2019-04-07T08:14:32.937Z,99.90
2019-04-07T08:17:04.160Z,99.90
2019-04-07T08:19:35.327Z,99.90
2019-04-07T08:22:07.733Z,99.90
2019-04-07T08:24:38.934Z,99.90
2019-04-07T08:27:10.607Z,99.90
2019-04-07T08:29:41.776Z,99.90
2019-04-07T08:32:13.278Z,99.90
2019-04-07T08:34:44.955Z,99.90
2019-04-07T08:37:16.427Z,99.90
2019-04-07T08:39:47.543Z,99.90
2019-04-07T08:42:19.830Z,99.90
2019-04-07T08:44:52.302Z,99.90
2019-04-07T08:47:23.559Z,99.90
2019-04-07T08:49:56.899Z,99.90
2019-04-07T08:52:27.287Z,99.90
2019-04-07T08:54:58.686Z,99.90
2019-04-07T08:57:31.261Z,99.90
2019-04-07T09:00:02.987Z,99.90
2019-04-07T09:02:34.923Z,99.90
2019-04-07T09:05:06.639Z,99.90
2019-04-07T09:07:38.075Z,99.90
2019-04-07T09:10:18.867Z,99.90
2019-04-07T09:12:49.981Z,99.90
2019-04-07T09:15:43.046Z,99.90
2019-04-07T09:18:19.136Z,99.90
2019-04-07T09:21:12.189Z,99.90
2019-04-07T09:23:50.611Z,99.90
2019-04-07T09:26:45.694Z,99.90
2019-04-07T09:29:37.651Z,99.90
2019-04-07T09:32:25.896Z,99.90
2019-04-07T09:35:16.657Z,99.90
2019-04-07T09:37:56.352Z,99.90
2019-04-07T09:40:34.612Z,99.90
2019-04-07T09:43:25.192Z,99.90
2019-04-07T09:46:15.256Z,99.90
2019-04-07T09:49:11.778Z,99.90
2019-04-07T09:52:02.828Z,99.90
2019-04-07T09:54:59.117Z,99.90
2019-04-07T09:57:54.958Z,99.50
2019-04-07T10:00:49.115Z,99.60
2019-04-07T10:03:38.685Z,99.90
2019-04-07T10:06:28.987Z,99.60
2019-04-07T10:09:23.289Z,99.30
2019-04-07T10:12:19.680Z,99.20
2019-04-07T10:15:02.009Z,99.70
2019-04-07T10:17:55.461Z,99.10
2019-04-07T10:20:35.836Z,99.40
2019-04-07T10:23:30.036Z,98.70
2019-04-07T10:26:18.968Z,98.80
2019-04-07T10:28:57.250Z,97.80
2019-04-07T10:31:44.190Z,97.90
2019-04-07T10:34:35.459Z,97.60
2019-04-07T10:37:14.551Z,97.40
2019-04-07T10:39:59.263Z,97.10
2019-04-07T10:42:59.690Z,96.50
2019-04-07T10:45:41.771Z,96.90
2019-04-07T10:48:38.089Z,95.90
2019-04-07T10:51:31.991Z,95.00
2019-04-07T10:54:14.679Z,95.50
2019-04-07T10:57:05.110Z,95.50
2019-04-07T10:59:49.295Z,95.70
2019-04-07T11:02:39.337Z,95.30
2019-04-07T11:05:28.458Z,95.00
2019-04-07T11:08:18.271Z,95.20
2019-04-07T11:11:07.905Z,93.90
2019-04-07T11:13:51.624Z,94.60
2019-04-07T11:16:40.857Z,93.90
2019-04-07T11:19:42.278Z,94.10
2019-04-07T11:22:36.110Z,93.80
2019-04-07T11:25:18.336Z,92.90
2019-04-07T11:28:14.884Z,93.30
2019-04-07T11:31:11.142Z,92.60
2019-04-07T11:34:07.325Z,91.30
2019-04-07T11:37:01.762Z,91.10
2019-04-07T11:39:52.318Z,90.50
2019-04-07T11:42:49.022Z,90.70
2019-04-07T11:45:39.001Z,89.80
2019-04-07T11:48:17.637Z,90.10
2019-04-07T11:51:06.250Z,91.10
2019-04-07T11:53:56.672Z,91.40
2019-04-07T11:56:39.442Z,90.20
2019-04-07T11:59:26.340Z,88.10
2019-04-07T12:02:10.746Z,87.40
2019-04-07T12:05:03.298Z,88.90
2019-04-07T12:08:00.730Z,87.10
2019-04-07T12:10:58.502Z,87.10
2019-04-07T12:13:44.667Z,87.20
2019-04-07T12:17:02.433Z,87.40
2019-04-07T12:19:37.384Z,87.80
2019-04-07T12:22:23.812Z,86.80
2019-04-07T12:25:26.887Z,86.80
2019-04-07T12:28:24.658Z,85.90
2019-04-07T12:31:15.027Z,86.00
2019-04-07T12:34:05.020Z,84.40
2019-04-07T12:36:52.917Z,85.90
2019-04-07T12:39:38.645Z,83.80
2019-04-07T12:42:28.835Z,85.40
2019-04-07T12:45:25.429Z,85.20
2019-04-07T12:48:10.206Z,85.40
2019-04-07T12:50:56.334Z,85.50
2019-04-07T12:53:37.422Z,85.10
2019-04-07T12:56:15.820Z,85.00
2019-04-07T12:59:06.899Z,84.50
2019-04-07T13:02:19.190Z,85.70
2019-04-07T13:05:08.691Z,82.40
2019-04-07T13:07:51.343Z,83.10
2019-04-07T13:10:28.055Z,83.70
2019-04-07T13:13:27.762Z,81.90
2019-04-07T13:16:05.720Z,83.70
2019-04-07T13:18:45.624Z,82.00
2019-04-07T13:21:24.527Z,82.90
2019-04-07T13:24:30.177Z,84.10
2019-04-07T13:27:14.136Z,87.90
2019-04-07T13:30:15.014Z,83.90
2019-04-07T13:33:11.856Z,83.50
2019-04-07T13:35:53.477Z,85.90
2019-04-07T13:38:45.840Z,85.40
2019-04-07T13:41:44.906Z,85.40
2019-04-07T13:44:21.813Z,85.10
2019-04-07T13:47:07.255Z,85.50
2019-04-07T13:49:58.998Z,84.20
2019-04-07T13:52:35.908Z,84.30
2019-04-07T13:55:30.569Z,85.80
2019-04-07T13:58:18.627Z,85.50
2019-04-07T14:01:09.565Z,84.40
2019-04-07T14:04:00.087Z,84.10
2019-04-07T14:06:36.225Z,84.00
2019-04-07T14:09:27.198Z,84.50
2019-04-07T14:12:18.122Z,85.00
2019-04-07T14:14:59.207Z,85.50
2019-04-07T14:17:55.797Z,85.50
2019-04-07T14:20:44.823Z,85.90
2019-04-07T14:23:22.627Z,85.40
2019-04-07T14:26:25.828Z,84.60
2019-04-07T14:29:07.626Z,85.30
2019-04-07T14:31:57.639Z,83.50
2019-04-07T14:35:00.960Z,81.80
2019-04-07T14:37:41.839Z,82.50
2019-04-07T14:40:30.155Z,82.70
2019-04-07T14:43:19.827Z,79.60
2019-04-07T14:46:19.535Z,83.10
2019-04-07T14:49:05.498Z,78.70
2019-04-07T14:51:53.553Z,77.20
2019-04-07T14:54:56.615Z,77.70
2019-04-07T14:57:51.293Z,77.50
2019-04-07T15:00:48.997Z,77.60
2019-04-07T15:03:21.388Z,79.70
2019-04-07T15:05:56.409Z,82.00
2019-04-07T15:08:34.370Z,75.50
2019-04-07T15:11:26.983Z,76.10
2019-04-07T15:14:01.330Z,75.50
2019-04-07T15:16:31.685Z,76.80
2019-04-07T15:19:03.149Z,77.00
2019-04-07T15:21:34.377Z,76.50
2019-04-07T15:24:07.132Z,76.50
2019-04-07T15:26:38.930Z,76.50
2019-04-07T15:29:10.881Z,76.50
2019-04-07T15:31:42.759Z,76.50
2019-04-07T15:34:15.260Z,78.10
2019-04-07T15:36:48.414Z,79.80
2019-04-07T15:39:19.394Z,79.80
2019-04-07T15:41:51.016Z,78.80
2019-04-07T15:44:24.858Z,78.20
2019-04-07T15:46:56.536Z,78.00
2019-04-07T15:49:30.994Z,77.30
2019-04-07T15:52:04.661Z,77.10
2019-04-07T15:54:35.259Z,77.20
2019-04-07T15:57:07.019Z,77.80
2019-04-07T15:59:38.219Z,78.50
2019-04-07T16:02:11.188Z,76.40
2019-04-07T16:04:43.967Z,75.40
2019-04-07T16:07:18.363Z,77.50
2019-04-07T16:09:55.174Z,77.00
2019-04-07T16:12:22.994Z,76.90
2019-04-07T16:14:54.715Z,78.40
2019-04-07T16:17:26.433Z,77.90
2019-04-07T16:19:58.444Z,75.30
2019-04-07T16:22:29.720Z,75.90
2019-04-07T16:25:00.696Z,75.60
2019-04-07T16:27:32.996Z,76.50
2019-04-07T16:30:05.136Z,74.90
2019-04-07T16:32:37.620Z,75.70
2019-04-07T16:35:13.042Z,76.10
2019-04-07T16:37:43.804Z,75.50
2019-04-07T16:40:15.410Z,75.50
2019-04-07T16:43:01.271Z,74.90
2019-04-07T16:45:19.516Z,74.90
2019-04-07T16:47:51.247Z,75.00
2019-04-07T16:50:22.904Z,75.00
2019-04-07T16:52:55.097Z,74.80
2019-04-07T16:55:34.912Z,75.00
2019-04-07T16:58:06.470Z,76.40
2019-04-07T17:00:38.366Z,75.60
2019-04-07T17:03:10.113Z,75.60
2019-04-07T17:05:41.259Z,74.60
2019-04-07T17:08:12.843Z,74.60
2019-04-07T17:10:44.254Z,73.30
2019-04-07T17:13:20.506Z,72.20
2019-04-07T17:15:51.397Z,73.10
2019-04-07T17:18:39.166Z,70.90
2019-04-07T17:21:14.011Z,71.50
2019-04-07T17:23:46.190Z,70.50
2019-04-07T17:26:18.119Z,70.00
2019-04-07T17:28:50.025Z,71.60
2019-04-07T17:31:21.435Z,70.00
2019-04-07T17:33:52.580Z,70.50
2019-04-07T17:36:25.044Z,71.40
2019-04-07T17:39:14.422Z,72.50
2019-04-07T17:41:49.872Z,69.40
2019-04-07T17:44:37.047Z,71.30
2019-04-07T17:47:29.569Z,71.60
2019-04-07T17:50:18.072Z,70.70
2019-04-07T17:53:10.027Z,72.90
2019-04-07T17:56:07.529Z,70.90
2019-04-07T17:59:01.833Z,72.70
2019-04-07T18:01:44.247Z,71.20
2019-04-07T18:04:23.037Z,70.90
2019-04-07T18:07:12.335Z,72.00
2019-04-07T18:10:05.322Z,71.50
2019-04-07T18:12:49.898Z,72.90
2019-04-07T18:15:40.159Z,71.90
2019-04-07T18:18:24.067Z,75.10
2019-04-07T18:21:00.756Z,73.40
2019-04-07T18:23:38.282Z,74.90
2019-04-07T18:26:16.881Z,75.60
2019-04-07T18:28:59.844Z,76.90
2019-04-07T18:31:42.081Z,74.60
2019-04-07T18:34:32.141Z,78.00
2019-04-07T18:37:10.326Z,79.50
2019-04-07T18:40:01.735Z,79.80
2019-04-07T18:42:51.102Z,80.80
2019-04-07T18:45:36.347Z,81.10
2019-04-07T18:48:28.429Z,85.50
2019-04-07T18:51:17.776Z,85.30
2019-04-07T18:54:09.929Z,85.60
2019-04-07T18:57:01.439Z,87.20
2019-04-07T18:59:42.257Z,88.70
2019-04-07T19:02:26.667Z,88.50
2019-04-07T19:05:22.229Z,89.90
2019-04-07T19:08:02.708Z,88.90
2019-04-07T19:10:45.039Z,89.90
2019-04-07T19:13:37.717Z,90.40
2019-04-07T19:16:22.961Z,90.30
2019-04-07T19:19:08.572Z,90.80
2019-04-07T19:21:48.365Z,91.20
2019-04-07T19:24:42.827Z,91.20
2019-04-07T19:27:37.353Z,91.60
2019-04-07T19:30:29.128Z,91.90
2019-04-07T19:33:24.055Z,92.20
2019-04-07T19:36:12.165Z,92.30
2019-04-07T19:39:06.876Z,92.50
2019-04-07T19:41:47.131Z,92.90
2019-04-07T19:44:37.132Z,93.10
2019-04-07T19:47:15.078Z,93.30
2019-04-07T19:49:54.907Z,93.00
2019-04-07T19:52:44.199Z,93.20
2019-04-07T19:55:26.680Z,93.60
2019-04-07T19:58:10.406Z,93.90
2019-04-07T20:00:54.985Z,93.80
2019-04-07T20:03:40.519Z,94.60
2019-04-07T20:06:29.776Z,95.20
2019-04-07T20:09:30.115Z,94.30
2019-04-07T20:12:18.866Z,94.40
2019-04-07T20:15:08.108Z,94.30
2019-04-07T20:17:54.883Z,95.40
2019-04-07T20:20:40.575Z,95.90
2019-04-07T20:23:30.382Z,95.00
2019-04-07T20:26:18.616Z,94.90
2019-04-07T20:29:02.228Z,95.40
2019-04-07T20:31:51.616Z,94.90
2019-04-07T20:34:29.636Z,95.30
2019-04-07T20:37:19.203Z,95.30
2019-04-07T20:40:09.891Z,95.10
2019-04-07T20:43:10.135Z,95.60
2019-04-07T20:45:51.622Z,95.50
2019-04-07T20:48:38.875Z,95.60
2019-04-07T20:51:19.079Z,96.20
2019-04-07T20:54:10.639Z,96.00
2019-04-07T20:56:51.996Z,95.90
2019-04-07T20:59:50.450Z,96.10
2019-04-07T21:02:36.262Z,96.00
2019-04-07T21:05:28.342Z,97.20
2019-04-07T21:08:18.251Z,96.60
2019-04-07T21:11:15.164Z,96.60
2019-04-07T21:14:05.528Z,96.50
2019-04-07T21:16:57.864Z,97.50
2019-04-07T21:19:52.424Z,97.10
2019-04-07T21:22:33.519Z,97.10
2019-04-07T21:25:19.509Z,97.30
2019-04-07T21:27:54.985Z,97.80
2019-04-07T21:30:51.868Z,97.90
2019-04-07T21:33:34.590Z,97.80
2019-04-07T21:36:16.269Z,98.00
2019-04-07T21:38:58.297Z,97.90
2019-04-07T21:41:52.041Z,98.40
2019-04-07T21:44:30.535Z,99.10
2019-04-07T21:47:23.552Z,99.10
2019-04-07T21:50:07.525Z,98.60
2019-04-07T21:52:55.592Z,98.90
2019-04-07T21:55:45.701Z,98.90
2019-04-07T21:58:26.299Z,98.60
2019-04-07T22:01:08.033Z,99.10
2019-04-07T22:03:58.755Z,98.90
2019-04-07T22:06:53.476Z,98.80
2019-04-07T22:09:32.205Z,98.90
2019-04-07T22:12:03.481Z,98.90
2019-04-07T22:14:38.814Z,98.80
2019-04-07T22:17:08.104Z,98.80
2019-04-07T22:19:44.135Z,98.90
2019-04-07T22:22:11.875Z,99.30
2019-04-07T22:24:44.598Z,99.10
2019-04-07T22:27:20.396Z,99.40
2019-04-07T22:29:48.960Z,99.50
2019-04-07T22:32:22.149Z,99.80
2019-04-07T22:34:52.943Z,99.40
2019-04-07T22:37:23.856Z,99.70
2019-04-07T22:39:57.223Z,99.90
2019-04-07T22:42:27.607Z,99.60
2019-04-07T22:44:59.864Z,99.70
2019-04-07T22:47:31.606Z,99.40
2019-04-07T22:50:05.379Z,99.50
2019-04-07T22:52:36.979Z,99.50
2019-04-07T22:55:08.760Z,99.90
2019-04-07T22:57:41.067Z,99.50
2019-04-07T23:00:19.124Z,99.90
2019-04-07T23:02:52.062Z,99.90
2019-04-07T23:05:23.345Z,99.90
2019-04-07T23:07:54.754Z,99.90
2019-04-07T23:10:25.687Z,99.90
2019-04-07T23:12:57.285Z,99.90
2019-04-07T23:15:38.570Z,99.90
2019-04-07T23:18:03.211Z,99.90
2019-04-07T23:20:35.432Z,99.90
2019-04-07T23:23:06.957Z,99.90
2019-04-07T23:25:38.550Z,99.90
2019-04-07T23:28:10.292Z,99.90
2019-04-07T23:30:41.595Z,99.90
2019-04-07T23:33:12.679Z,99.90
2019-04-07T23:35:44.778Z,99.90
2019-04-07T23:38:16.132Z,99.90
2019-04-07T23:40:48.247Z,99.90
2019-04-07T23:43:19.711Z,99.90
2019-04-07T23:45:51.706Z,99.90
2019-04-07T23:48:22.933Z,99.90
2019-04-07T23:50:54.159Z,99.90
2019-04-07T23:54:02.249Z,99.90
2019-04-07T23:56:33.665Z,99.90
2019-04-07T23:59:06.155Z,99.90
